createdAt,value
2023-05-25T00:02:08.075Z,8.47
2023-05-25T00:04:37.023Z,8.00
2023-05-25T00:07:05.645Z,8.83
2023-05-25T00:09:33.903Z,8.40
2023-05-25T00:12:02.818Z,9.47
2023-05-25T00:14:31.751Z,8.00
2023-05-25T00:17:04.333Z,9.73
2023-05-25T00:19:34.013Z,9.07
2023-05-25T00:22:03.259Z,8.90
2023-05-25T00:24:32.113Z,9.00
2023-05-25T00:27:00.706Z,9.60
2023-05-25T00:29:29.021Z,8.07
2023-05-25T00:31:57.417Z,9.03
2023-05-25T00:34:26.949Z,9.70
2023-05-25T00:36:55.462Z,8.60
2023-05-25T00:39:23.877Z,9.87
2023-05-25T00:41:52.150Z,9.20
2023-05-25T00:44:21.853Z,9.70
2023-05-25T00:46:53.048Z,8.90
2023-05-25T00:49:23.692Z,9.50
2023-05-25T00:51:54.414Z,8.90
2023-05-25T00:54:23.024Z,10.10
2023-05-25T00:56:54.119Z,8.87
2023-05-25T00:59:29.607Z,9.70
2023-05-25T01:02:00.833Z,9.13
2023-05-25T01:04:29.926Z,8.90
2023-05-25T01:07:01.201Z,8.53
2023-05-25T01:09:30.904Z,10.67
2023-05-25T01:12:00.253Z,9.70
2023-05-25T01:14:29.448Z,9.80
2023-05-25T01:16:59.955Z,9.80
2023-05-25T01:19:28.526Z,8.27
2023-05-25T01:22:04.963Z,8.90
2023-05-25T01:24:40.892Z,9.37
2023-05-25T01:27:17.005Z,9.93
2023-05-25T01:29:49.094Z,11.23
2023-05-25T01:32:19.496Z,12.47
2023-05-25T01:34:52.038Z,12.07
2023-05-25T01:37:24.598Z,12.60
2023-05-25T01:39:52.819Z,13.13
2023-05-25T01:42:20.985Z,11.67
2023-05-25T01:44:49.993Z,12.10
2023-05-25T01:47:24.628Z,11.60
2023-05-25T01:50:01.181Z,13.07
2023-05-25T01:52:35.873Z,12.60
2023-05-25T01:55:09.284Z,12.90
2023-05-25T01:57:43.674Z,13.90
2023-05-25T02:00:14.388Z,12.33
2023-05-25T02:02:44.376Z,13.57
2023-05-25T02:05:12.915Z,12.00
2023-05-25T02:07:42.613Z,12.70
2023-05-25T02:10:11.450Z,13.83
2023-05-25T02:12:39.649Z,13.07
2023-05-25T02:15:08.972Z,13.07
2023-05-25T02:17:37.268Z,11.70
2023-05-25T02:20:08.442Z,13.00
2023-05-25T02:22:37.878Z,12.70
2023-05-25T02:25:11.018Z,13.20
2023-05-25T02:27:39.215Z,13.43
2023-05-25T02:30:09.488Z,13.10
2023-05-25T02:32:37.884Z,13.10
2023-05-25T02:35:06.684Z,13.80
2023-05-25T02:37:35.350Z,13.10
2023-05-25T02:40:06.294Z,13.00
2023-05-25T02:42:35.832Z,13.67
2023-05-25T02:45:06.437Z,14.23
2023-05-25T02:47:36.309Z,14.10
2023-05-25T02:50:05.515Z,14.47
2023-05-25T02:52:38.074Z,13.10
2023-05-25T02:55:07.546Z,14.87
2023-05-25T02:57:40.123Z,14.47
2023-05-25T03:00:12.172Z,15.47
2023-05-25T03:02:40.502Z,14.00
2023-05-25T03:05:09.236Z,13.67
2023-05-25T03:07:38.318Z,15.50
2023-05-25T03:10:07.172Z,14.07
2023-05-25T03:12:35.383Z,13.73
2023-05-25T03:15:06.479Z,15.00
2023-05-25T03:17:35.325Z,15.07
2023-05-25T03:20:04.259Z,15.40
2023-05-25T03:22:33.780Z,15.70
2023-05-25T03:25:02.874Z,16.87
2023-05-25T03:27:31.711Z,16.97
2023-05-25T03:30:00.031Z,16.07
2023-05-25T03:32:29.629Z,16.97
2023-05-25T03:34:58.360Z,16.60
2023-05-25T03:37:27.536Z,17.20
2023-05-25T03:39:55.775Z,17.30
2023-05-25T03:42:24.406Z,17.63
2023-05-25T03:44:52.648Z,17.00
2023-05-25T03:47:20.841Z,17.30
2023-05-25T03:49:50.735Z,17.30
2023-05-25T03:52:18.870Z,16.03
2023-05-25T03:54:47.009Z,15.43
2023-05-25T03:57:15.347Z,17.57
2023-05-25T03:59:43.504Z,16.00
2023-05-25T04:02:11.729Z,14.63
2023-05-25T04:04:44.207Z,16.63
2023-05-25T04:07:13.787Z,17.30
2023-05-25T04:09:42.064Z,15.80
2023-05-25T04:12:10.954Z,17.03
2023-05-25T04:14:39.128Z,16.07
2023-05-25T04:17:07.320Z,16.67
2023-05-25T04:19:35.513Z,17.60
2023-05-25T04:22:04.407Z,17.60
2023-05-25T04:24:34.170Z,17.03
2023-05-25T04:27:03.180Z,16.20
2023-05-25T04:29:32.065Z,17.30
2023-05-25T04:32:10.486Z,17.80
2023-05-25T04:35:09.762Z,17.83
2023-05-25T04:37:44.395Z,17.90
2023-05-25T04:40:14.422Z,15.90
2023-05-25T04:42:45.065Z,16.70
2023-05-25T04:45:17.553Z,17.30
2023-05-25T04:47:47.386Z,16.17
2023-05-25T04:50:15.634Z,16.23
2023-05-25T04:52:43.767Z,16.03
2023-05-25T04:55:13.623Z,17.67
2023-05-25T04:57:44.136Z,18.77
2023-05-25T05:00:15.250Z,17.00
2023-05-25T05:02:44.280Z,19.37
2023-05-25T05:05:12.562Z,17.90
2023-05-25T05:07:41.241Z,18.80
2023-05-25T05:10:10.484Z,18.37
2023-05-25T05:12:42.547Z,17.50
2023-05-25T05:15:12.007Z,16.90
2023-05-25T05:17:42.375Z,17.53
2023-05-25T05:20:12.849Z,17.70
2023-05-25T05:22:41.070Z,16.17
2023-05-25T05:25:09.958Z,17.53
2023-05-25T05:27:38.187Z,18.13
2023-05-25T05:30:16.052Z,16.60
2023-05-25T05:32:46.610Z,18.10
2023-05-25T05:35:15.742Z,17.50
2023-05-25T05:37:48.592Z,16.07
2023-05-25T05:40:17.031Z,15.60
2023-05-25T05:42:45.438Z,15.03
2023-05-25T05:45:15.002Z,14.60
2023-05-25T05:47:44.027Z,12.50
2023-05-25T05:50:12.915Z,12.50
2023-05-25T05:52:43.554Z,13.07
2023-05-25T05:55:12.736Z,12.10
2023-05-25T05:57:42.434Z,12.17
2023-05-25T06:00:11.910Z,12.20
2023-05-25T06:02:47.522Z,11.70
2023-05-25T06:05:21.425Z,11.90
2023-05-25T06:07:50.027Z,12.40
2023-05-25T06:10:20.401Z,11.13
2023-05-25T06:12:48.552Z,11.50
2023-05-25T06:15:17.514Z,11.77
2023-05-25T06:17:49.093Z,11.73
2023-05-25T06:20:18.180Z,13.20
2023-05-25T06:22:47.419Z,11.63
2023-05-25T06:25:16.510Z,11.50
2023-05-25T06:27:45.452Z,10.80
2023-05-25T06:30:14.728Z,10.97
2023-05-25T06:32:43.765Z,10.97
2023-05-25T06:35:19.566Z,10.83
2023-05-25T06:37:50.624Z,9.73
2023-05-25T06:40:20.520Z,8.80
2023-05-25T06:42:48.813Z,9.40
2023-05-25T06:45:42.590Z,8.43
2023-05-25T06:48:11.505Z,7.77
2023-05-25T06:50:42.349Z,7.90
2023-05-25T06:53:11.254Z,7.63
2023-05-25T06:55:39.406Z,7.13
2023-05-25T06:58:07.501Z,6.43
2023-05-25T07:00:35.651Z,8.20
2023-05-25T07:03:03.750Z,7.87
2023-05-25T07:05:32.056Z,7.57
2023-05-25T07:08:01.713Z,8.10
2023-05-25T07:10:29.778Z,7.67
2023-05-25T07:12:57.883Z,8.30
2023-05-25T07:15:26.014Z,7.90
2023-05-25T07:17:57.198Z,7.87
2023-05-25T07:20:25.520Z,7.43
2023-05-25T07:22:54.420Z,8.40
2023-05-25T07:25:24.002Z,8.43
2023-05-25T07:27:55.058Z,8.17
2023-05-25T07:30:23.321Z,7.50
2023-05-25T07:32:51.561Z,7.63
2023-05-25T07:35:19.989Z,8.73
2023-05-25T07:37:50.069Z,8.10
2023-05-25T07:40:18.379Z,7.20
2023-05-25T07:42:47.789Z,7.17
2023-05-25T07:45:16.220Z,8.07
2023-05-25T07:47:44.505Z,7.83
2023-05-25T07:50:12.922Z,6.73
2023-05-25T07:52:41.209Z,7.37
2023-05-25T07:55:10.349Z,7.10
2023-05-25T07:57:38.684Z,7.87
2023-05-25T08:00:11.156Z,8.00
2023-05-25T08:02:42.395Z,8.70
2023-05-25T08:05:12.831Z,7.87
2023-05-25T08:07:42.943Z,8.63
2023-05-25T08:10:11.663Z,7.73
2023-05-25T08:12:48.980Z,7.83
2023-05-25T08:15:19.923Z,7.77
2023-05-25T08:17:50.833Z,7.50
2023-05-25T08:20:19.326Z,7.90
2023-05-25T08:22:47.489Z,8.13
2023-05-25T08:25:15.801Z,9.50
2023-05-25T08:27:43.937Z,10.60
2023-05-25T08:30:12.974Z,8.97
2023-05-25T08:32:42.553Z,7.30
2023-05-25T08:35:11.128Z,7.77
2023-05-25T08:37:40.070Z,7.60
2023-05-25T08:40:14.139Z,8.10
2023-05-25T08:42:43.534Z,6.30
2023-05-25T08:45:22.555Z,7.43
2023-05-25T08:48:05.025Z,7.77
2023-05-25T08:50:34.840Z,7.00
2023-05-25T08:53:05.865Z,7.30
2023-05-25T08:55:38.886Z,7.27
2023-05-25T08:58:11.327Z,6.83
2023-05-25T09:00:49.717Z,6.73
2023-05-25T09:03:19.665Z,7.40
2023-05-25T09:05:48.793Z,6.83
2023-05-25T09:08:18.033Z,7.83
2023-05-25T09:10:46.318Z,6.20
2023-05-25T09:13:21.771Z,6.30
2023-05-25T09:15:52.003Z,5.67
2023-05-25T09:18:23.914Z,6.33
2023-05-25T09:20:52.538Z,7.10
2023-05-25T09:23:21.359Z,5.57
2023-05-25T09:25:50.743Z,6.10
2023-05-25T09:28:26.840Z,6.07
2023-05-25T09:30:55.948Z,5.43
2023-05-25T09:33:25.652Z,6.70
2023-05-25T09:35:53.788Z,6.20
2023-05-25T09:38:22.485Z,7.17
2023-05-25T09:40:52.210Z,6.40
2023-05-25T09:43:32.212Z,7.50
2023-05-25T09:46:07.728Z,7.50
2023-05-25T09:48:38.053Z,8.13
2023-05-25T09:51:08.629Z,7.20
2023-05-25T09:53:36.776Z,6.60
2023-05-25T09:56:04.904Z,6.70
2023-05-25T09:58:32.997Z,6.57
2023-05-25T10:01:01.763Z,6.63
2023-05-25T10:03:29.914Z,5.93
2023-05-25T10:05:59.565Z,6.23
2023-05-25T10:08:29.716Z,7.37
2023-05-25T10:10:58.068Z,6.47
2023-05-25T10:13:28.210Z,6.10
2023-05-25T10:15:57.311Z,7.93
2023-05-25T10:18:27.779Z,6.13
2023-05-25T10:21:04.809Z,6.00
2023-05-25T10:23:41.421Z,6.87
2023-05-25T10:26:11.210Z,6.43
2023-05-25T10:28:42.915Z,6.13
2023-05-25T10:31:11.573Z,6.93
2023-05-25T10:33:40.259Z,7.07
2023-05-25T10:36:13.386Z,6.60
2023-05-25T10:38:44.673Z,7.30
2023-05-25T10:41:16.205Z,6.93
2023-05-25T10:43:44.672Z,7.40
2023-05-25T10:46:15.052Z,7.10
2023-05-25T10:48:48.348Z,8.20
2023-05-25T10:51:20.571Z,6.23
2023-05-25T10:53:59.448Z,6.70
2023-05-25T10:56:27.519Z,6.03
2023-05-25T10:58:56.807Z,6.37
2023-05-25T11:01:26.961Z,7.33
2023-05-25T11:03:57.883Z,7.27
2023-05-25T11:06:59.385Z,7.00
2023-05-25T11:09:31.457Z,6.90
2023-05-25T11:12:03.818Z,5.90
2023-05-25T11:14:33.659Z,7.63
2023-05-25T11:17:10.530Z,7.43
2023-05-25T11:19:44.262Z,6.57
2023-05-25T11:22:16.830Z,8.13
2023-05-25T11:24:46.446Z,6.13
2023-05-25T11:27:16.859Z,6.03
2023-05-25T11:29:45.169Z,7.60
2023-05-25T11:32:15.158Z,8.10
2023-05-25T11:34:46.748Z,7.73
2023-05-25T11:37:21.108Z,7.70
2023-05-25T11:39:51.576Z,7.87
2023-05-25T11:42:22.179Z,7.90
2023-05-25T11:44:50.611Z,7.30
2023-05-25T11:47:23.059Z,7.57
2023-05-25T11:49:51.489Z,8.60
2023-05-25T11:52:22.196Z,8.00
2023-05-25T11:54:53.113Z,6.93
2023-05-25T11:57:24.451Z,7.20
2023-05-25T11:59:54.109Z,7.20
2023-05-25T12:02:23.665Z,7.77
2023-05-25T12:04:56.257Z,8.40
2023-05-25T12:07:26.080Z,7.27
2023-05-25T12:10:06.154Z,6.97
2023-05-25T12:12:42.016Z,8.20
2023-05-25T12:15:11.868Z,6.97
2023-05-25T12:17:43.118Z,7.50
2023-05-25T12:20:13.189Z,7.30
2023-05-25T12:22:41.959Z,6.73
2023-05-25T12:25:13.761Z,6.07
2023-05-25T12:27:42.697Z,5.77
2023-05-25T12:30:12.390Z,7.43
2023-05-25T12:33:02.743Z,6.40
2023-05-25T12:35:45.418Z,6.10
2023-05-25T12:38:14.530Z,7.17
2023-05-25T12:40:44.741Z,7.30
2023-05-25T12:43:14.216Z,9.63
2023-05-25T12:45:43.202Z,7.70
2023-05-25T12:48:12.626Z,7.87
2023-05-25T12:50:57.359Z,7.30
2023-05-25T12:53:27.221Z,8.43
2023-05-25T12:56:03.845Z,8.97
2023-05-25T12:58:32.298Z,8.57
2023-05-25T13:01:00.974Z,8.00
2023-05-25T13:03:29.185Z,8.10
2023-05-25T13:06:03.266Z,7.60
2023-05-25T13:08:31.532Z,8.17
2023-05-25T13:11:00.198Z,7.67
2023-05-25T13:13:29.789Z,7.27
2023-05-25T13:15:58.294Z,8.17
2023-05-25T13:18:26.546Z,7.53
2023-05-25T13:20:56.911Z,8.70
2023-05-25T13:23:25.584Z,7.20
2023-05-25T13:25:53.642Z,8.43
2023-05-25T13:28:21.839Z,7.80
2023-05-25T13:30:51.288Z,7.30
2023-05-25T13:33:19.371Z,8.10
2023-05-25T13:35:58.511Z,7.67
2023-05-25T13:38:27.563Z,8.10
2023-05-25T13:40:55.682Z,7.90
2023-05-25T13:43:23.740Z,7.73
2023-05-25T13:45:55.644Z,7.83
2023-05-25T13:48:24.134Z,8.20
2023-05-25T13:50:52.291Z,7.70
2023-05-25T13:53:21.504Z,7.87
2023-05-25T13:55:49.662Z,8.43
2023-05-25T13:58:17.885Z,9.17
2023-05-25T14:00:46.190Z,6.97
2023-05-25T14:03:15.894Z,7.70
2023-05-25T14:05:44.343Z,7.33
2023-05-25T14:08:12.733Z,8.00
2023-05-25T14:10:43.272Z,8.70
2023-05-25T14:13:13.824Z,6.97
2023-05-25T14:15:42.009Z,7.93
2023-05-25T14:18:10.196Z,7.17
2023-05-25T14:20:41.138Z,6.77
2023-05-25T14:23:10.923Z,8.53
2023-05-25T14:25:41.368Z,7.10
2023-05-25T14:28:09.488Z,8.07
2023-05-25T14:30:37.581Z,7.07
2023-05-25T14:33:05.697Z,7.67
2023-05-25T14:35:33.956Z,8.03
2023-05-25T14:38:03.382Z,8.60
2023-05-25T14:40:31.456Z,7.03
2023-05-25T14:42:59.572Z,7.73
2023-05-25T14:45:27.655Z,6.80
2023-05-25T14:48:11.753Z,6.50
2023-05-25T14:50:44.469Z,6.77
2023-05-25T14:53:14.149Z,6.77
2023-05-25T14:55:42.353Z,7.70
2023-05-25T14:58:11.081Z,6.73
2023-05-25T15:00:39.178Z,6.80
2023-05-25T15:03:07.472Z,7.53
2023-05-25T15:05:35.613Z,7.60
2023-05-25T15:08:03.744Z,7.20
2023-05-25T15:10:33.308Z,7.30
2023-05-25T15:13:01.373Z,6.43
2023-05-25T15:15:29.470Z,7.47
2023-05-25T15:17:57.636Z,7.80
2023-05-25T15:20:25.862Z,7.37
2023-05-25T15:22:54.075Z,6.00
2023-05-25T15:25:35.097Z,6.00
2023-05-25T15:28:05.484Z,6.17
2023-05-25T15:30:34.320Z,8.10
2023-05-25T15:33:02.706Z,6.30
2023-05-25T15:35:32.456Z,7.00
2023-05-25T15:38:01.414Z,6.83
2023-05-25T15:40:29.753Z,6.77
2023-05-25T15:42:57.902Z,6.70
2023-05-25T15:45:27.504Z,7.20
2023-05-25T15:47:55.831Z,6.47
2023-05-25T15:50:24.165Z,6.67
2023-05-25T15:52:52.250Z,6.03
2023-05-25T15:55:20.596Z,6.33
2023-05-25T15:57:48.777Z,5.57
2023-05-25T16:00:17.869Z,6.70
2023-05-25T16:02:47.462Z,6.13
2023-05-25T16:05:15.561Z,6.67
2023-05-25T16:07:43.618Z,6.97
2023-05-25T16:10:11.927Z,6.70
2023-05-25T16:12:40.016Z,5.83
2023-05-25T16:15:09.058Z,7.20
2023-05-25T16:17:37.256Z,6.30
2023-05-25T16:20:08.567Z,6.73
2023-05-25T16:22:36.969Z,5.97
2023-05-25T16:25:05.502Z,7.30
2023-05-25T16:27:33.621Z,6.57
2023-05-25T16:30:01.821Z,7.53
2023-05-25T16:32:29.970Z,5.27
2023-05-25T16:34:58.383Z,6.60
2023-05-25T16:37:28.051Z,6.20
2023-05-25T16:39:56.231Z,5.60
2023-05-25T16:42:26.302Z,7.40
2023-05-25T16:44:54.532Z,5.63
2023-05-25T16:47:22.753Z,5.10
2023-05-25T16:49:50.883Z,6.50
2023-05-25T16:52:18.945Z,5.73
2023-05-25T16:54:48.394Z,5.30
2023-05-25T16:57:16.545Z,6.17
2023-05-25T16:59:45.585Z,4.57
2023-05-25T17:02:13.715Z,6.17
2023-05-25T17:04:41.830Z,5.60
2023-05-25T17:07:09.940Z,6.50
2023-05-25T17:09:38.081Z,7.00
2023-05-25T17:12:08.841Z,5.43
2023-05-25T17:14:37.131Z,5.90
2023-05-25T17:17:05.448Z,6.50
2023-05-25T17:19:34.640Z,6.80
2023-05-25T17:22:03.578Z,6.93
2023-05-25T17:24:31.806Z,5.80
2023-05-25T17:26:59.881Z,6.00
2023-05-25T17:29:29.495Z,5.83
2023-05-25T17:31:57.761Z,6.03
2023-05-25T17:34:25.909Z,5.30
2023-05-25T17:36:54.115Z,6.70
2023-05-25T17:39:22.251Z,6.77
2023-05-25T17:41:50.663Z,5.90
2023-05-25T17:44:18.886Z,5.23
2023-05-25T17:46:48.620Z,6.13
2023-05-25T17:49:16.787Z,5.50
2023-05-25T17:51:45.218Z,6.43
2023-05-25T17:54:15.377Z,5.87
2023-05-25T17:56:43.462Z,6.10
2023-05-25T17:59:11.567Z,6.60
2023-05-25T18:01:40.718Z,6.10
2023-05-25T18:04:10.608Z,6.50
2023-05-25T18:06:38.824Z,5.70
2023-05-25T18:09:06.960Z,6.70
2023-05-25T18:11:36.596Z,6.10
2023-05-25T18:14:05.096Z,6.43
2023-05-25T18:16:33.484Z,6.90
2023-05-25T18:19:03.844Z,6.10
2023-05-25T18:21:33.988Z,6.13
2023-05-25T18:24:02.068Z,6.30
2023-05-25T18:26:30.221Z,5.50
2023-05-25T18:28:58.352Z,6.43
2023-05-25T18:31:27.106Z,5.53
2023-05-25T18:33:55.443Z,5.83
2023-05-25T18:36:23.683Z,5.87
2023-05-25T18:38:53.189Z,5.90
2023-05-25T18:41:22.865Z,6.40
2023-05-25T18:43:51.100Z,6.43
2023-05-25T18:46:19.705Z,6.37
2023-05-25T18:48:48.054Z,5.87
2023-05-25T18:51:17.158Z,6.57
2023-05-25T18:53:45.888Z,6.70
2023-05-25T18:56:15.400Z,6.80
2023-05-25T18:58:43.492Z,5.83
2023-05-25T19:01:11.622Z,5.77
2023-05-25T19:03:39.771Z,6.60
2023-05-25T19:06:08.268Z,6.23
2023-05-25T19:08:36.435Z,6.90
2023-05-25T19:11:07.084Z,6.90
2023-05-25T19:13:36.549Z,6.97
2023-05-25T19:16:04.806Z,6.40
2023-05-25T19:18:32.887Z,6.40
2023-05-25T19:21:02.230Z,6.97
2023-05-25T19:23:30.656Z,6.37
2023-05-25T19:25:58.802Z,7.30
2023-05-25T19:28:26.953Z,7.73
2023-05-25T19:30:56.441Z,7.43
2023-05-25T19:33:24.505Z,7.33
2023-05-25T19:35:52.673Z,7.25
2023-05-25T19:40:49.369Z,8.03
2023-05-25T19:43:17.425Z,7.50
2023-05-25T19:45:46.050Z,5.97
2023-05-25T19:48:15.885Z,6.77
2023-05-25T19:50:43.973Z,7.17
2023-05-25T19:53:12.074Z,6.93
2023-05-25T19:55:40.141Z,6.30
2023-05-25T19:58:08.296Z,7.53
2023-05-25T20:00:36.420Z,7.00
2023-05-25T20:03:04.770Z,7.43
2023-05-25T20:05:34.365Z,8.10
2023-05-25T20:08:02.562Z,6.87
2023-05-25T20:10:30.943Z,7.77
2023-05-25T20:12:59.024Z,7.90
2023-05-25T20:15:27.345Z,7.23
2023-05-25T20:17:55.553Z,6.90
2023-05-25T20:20:23.964Z,6.30
2023-05-25T20:22:53.643Z,8.70
2023-05-25T20:25:21.797Z,8.20
2023-05-25T20:27:49.969Z,7.83
2023-05-25T20:30:18.162Z,7.07
2023-05-25T20:32:46.481Z,7.33
2023-05-25T20:35:14.987Z,6.70
2023-05-25T20:37:43.140Z,6.60
2023-05-25T20:40:13.053Z,7.10
2023-05-25T20:42:41.388Z,7.50
2023-05-25T20:45:10.839Z,7.60
2023-05-25T20:47:41.032Z,8.30
2023-05-25T20:50:09.882Z,8.17
2023-05-25T20:52:38.032Z,7.40
2023-05-25T20:55:06.919Z,8.07
2023-05-25T20:57:36.426Z,7.80
2023-05-25T21:00:05.317Z,6.63
2023-05-25T21:02:33.571Z,7.50
2023-05-25T21:05:02.240Z,6.73
2023-05-25T21:07:30.487Z,8.30
2023-05-25T21:09:59.610Z,8.90
2023-05-25T21:12:27.814Z,8.60
2023-05-25T21:14:57.237Z,7.23
2023-05-25T21:17:25.751Z,9.70
2023-05-25T21:19:53.960Z,8.50
2023-05-25T21:22:22.311Z,8.37
2023-05-25T21:24:51.035Z,8.63
2023-05-25T21:27:19.161Z,8.07
2023-05-25T21:29:47.373Z,7.40
2023-05-25T21:32:16.938Z,7.73
2023-05-25T21:34:45.050Z,7.90
2023-05-25T21:37:13.248Z,7.57
2023-05-25T21:39:41.434Z,8.50
2023-05-25T21:42:10.545Z,7.30
2023-05-25T21:44:38.813Z,8.07
2023-05-25T21:47:07.109Z,8.20
2023-05-25T21:49:36.760Z,7.60
2023-05-25T21:52:19.705Z,7.90
2023-05-25T21:54:47.991Z,8.03
2023-05-25T21:57:16.111Z,9.00
2023-05-25T21:59:44.273Z,7.80
2023-05-25T22:02:12.341Z,8.20
2023-05-25T22:04:41.845Z,8.10
2023-05-25T22:07:10.269Z,7.97
2023-05-25T22:09:38.395Z,6.80
2023-05-25T22:12:07.752Z,7.33
2023-05-25T22:14:35.891Z,7.63
2023-05-25T22:17:04.237Z,7.13
2023-05-25T22:19:32.584Z,7.67
2023-05-25T22:22:02.001Z,7.60
2023-05-25T22:24:30.093Z,8.13
2023-05-25T22:26:58.148Z,7.20
2023-05-25T22:29:26.381Z,7.50
2023-05-25T22:31:54.515Z,8.10
2023-05-25T22:34:22.836Z,6.83
2023-05-25T22:36:51.086Z,7.87
2023-05-25T22:39:20.489Z,8.47
2023-05-25T22:41:48.557Z,7.73
2023-05-25T22:44:16.748Z,7.88
2023-05-25T22:46:44.907Z,9.30
2023-05-25T22:49:13.032Z,8.50
2023-05-25T22:51:41.113Z,7.10
2023-05-25T22:54:09.206Z,8.27
2023-05-25T22:56:38.999Z,7.57
2023-05-25T22:59:07.066Z,7.93
2023-05-25T23:01:35.141Z,7.73
2023-05-25T23:04:03.376Z,8.20
2023-05-25T23:06:32.580Z,7.50
2023-05-25T23:09:00.764Z,8.57
2023-05-25T23:11:29.310Z,8.00
2023-05-25T23:14:00.682Z,8.40
2023-05-25T23:16:29.030Z,8.60
2023-05-25T23:18:57.347Z,8.57
2023-05-25T23:21:25.449Z,8.80
2023-05-25T23:23:53.650Z,7.63
2023-05-25T23:26:22.281Z,8.20
2023-05-25T23:28:50.451Z,8.40
2023-05-25T23:31:20.130Z,8.30
2023-05-25T23:33:48.288Z,8.53
2023-05-25T23:36:16.389Z,8.40
2023-05-25T23:38:44.547Z,8.00
2023-05-25T23:41:12.698Z,7.50
2023-05-25T23:43:40.886Z,8.80
2023-05-25T23:46:09.073Z,8.93
2023-05-25T23:48:38.528Z,8.50
2023-05-25T23:51:07.532Z,7.87
2023-05-25T23:53:35.602Z,8.43
2023-05-25T23:56:03.801Z,8.07
2023-05-25T23:58:31.875Z,8.73
